createdAt,value
2022-09-05T00:01:32.838Z,96010.69
2022-09-05T00:04:24.325Z,96002.06
2022-09-05T00:07:03.108Z,96002.06
2022-09-05T00:09:52.532Z,95998.38
2022-09-05T00:12:23.365Z,96004.94
2022-09-05T00:15:15.896Z,96002.28
2022-09-05T00:19:10.692Z,95999.19
2022-09-05T00:24:26.687Z,95996.75
2022-09-05T00:24:28.937Z,95997.56
2022-09-05T00:26:51.149Z,96000.44
2022-09-05T00:30:33.361Z,96004.13
2022-09-05T00:32:28.451Z,96003.69
2022-09-05T00:35:09.903Z,96000.81
2022-09-05T00:37:40.721Z,95995.94
2022-09-05T00:40:22.925Z,96001.66
2022-09-05T00:42:55.260Z,95997.97
2022-09-05T00:45:31.733Z,95999.38
2022-09-05T00:48:07.279Z,96000.00
2022-09-05T00:50:41.726Z,96002.44
2022-09-05T00:53:16.689Z,96004.72
2022-09-05T00:55:58.893Z,96013.84
2022-09-05T00:58:46.342Z,96012.22
2022-09-05T01:01:29.149Z,96015.50
2022-09-05T01:04:28.466Z,96017.50
2022-09-05T01:07:11.426Z,96012.56
2022-09-05T01:09:51.555Z,96010.13
2022-09-05T01:12:53.067Z,96013.59
2022-09-05T01:15:32.513Z,96007.69
2022-09-05T01:18:25.891Z,96019.16
2022-09-05T01:21:13.539Z,96015.47
2022-09-05T01:23:58.362Z,96018.75
2022-09-05T01:26:45.199Z,96015.88
2022-09-05T01:29:24.570Z,96013.44
2022-09-05T01:32:09.574Z,96016.69
2022-09-05T01:34:49.945Z,96008.56
2022-09-05T01:37:33.808Z,96018.75
2022-09-05T01:40:17.449Z,96011.19
2022-09-05T01:43:02.606Z,96010.81
2022-09-05T01:45:47.352Z,96011.00
2022-09-05T01:48:28.623Z,96006.53
2022-09-05T01:51:10.827Z,96005.31
2022-09-05T01:54:21.357Z,96009.41
2022-09-05T01:57:04.119Z,96005.94
2022-09-05T01:59:45.240Z,96000.81
2022-09-05T02:02:24.723Z,96015.13
2022-09-05T02:05:11.497Z,96014.28
2022-09-05T02:08:08.093Z,96016.69
2022-09-05T02:10:44.750Z,96006.28
2022-09-05T02:13:21.667Z,96010.94
2022-09-05T02:15:59.734Z,96010.13
2022-09-05T02:18:45.574Z,96018.72
2022-09-05T02:21:24.895Z,96019.31
2022-09-05T02:24:03.120Z,96018.78
2022-09-05T02:26:35.569Z,96014.31
2022-09-05T02:29:13.316Z,96022.25
2022-09-05T02:32:04.563Z,96013.59
2022-09-05T02:34:42.003Z,96010.34
2022-09-05T02:37:22.849Z,96004.63
2022-09-05T02:45:02.308Z,96005.44
2022-09-05T02:45:08.516Z,96009.63
2022-09-05T02:46:07.788Z,96018.22
2022-09-05T02:48:51.105Z,96008.63
2022-09-05T02:57:25.826Z,96014.75
2022-09-05T02:57:43.478Z,96013.56
2022-09-05T02:58:07.236Z,96007.84
2022-09-05T03:00:21.503Z,96009.06
2022-09-05T03:03:21.793Z,96013.59
2022-09-05T03:05:58.253Z,96003.00
2022-09-05T03:08:45.990Z,96000.13
2022-09-05T03:11:45.799Z,96000.56
2022-09-05T03:14:49.913Z,95994.88
2022-09-05T03:17:48.437Z,95993.25
2022-09-05T03:20:51.609Z,95995.72
2022-09-05T03:23:39.677Z,96004.28
2022-09-05T03:26:49.053Z,96001.03
2022-09-05T03:29:58.436Z,96001.03
2022-09-05T03:33:08.547Z,96007.75
2022-09-05T03:36:09.191Z,96003.28
2022-09-05T03:39:10.377Z,96006.09
2022-09-05T03:41:58.623Z,96003.44
2022-09-05T03:44:40.802Z,96007.91
2022-09-05T03:47:40.334Z,96009.31
2022-09-05T03:54:45.831Z,96001.34
2022-09-05T03:57:11.161Z,96002.38
2022-09-05T03:57:23.306Z,96003.78
2022-09-05T03:59:55.321Z,96014.56
2022-09-05T04:08:10.371Z,96005.34
2022-09-05T04:08:28.022Z,95998.22
2022-09-05T04:08:40.945Z,96008.00
2022-09-05T04:11:04.886Z,96003.69
2022-09-05T04:13:38.865Z,96002.03
2022-09-05T04:16:13.558Z,96017.53
2022-09-05T04:18:44.701Z,96008.75
2022-09-05T04:21:18.343Z,96008.97
2022-09-05T04:23:53.835Z,96007.75
2022-09-05T04:26:37.742Z,96002.84
2022-09-05T04:29:16.897Z,96014.09
2022-09-05T04:32:15.393Z,96016.56
2022-09-05T04:34:51.677Z,96020.03
2022-09-05T04:37:48.921Z,96017.13
2022-09-05T04:40:53.066Z,96022.44
2022-09-05T04:43:29.126Z,96024.06
2022-09-05T04:46:08.352Z,96021.88
2022-09-05T04:48:39.133Z,96031.47
2022-09-05T04:51:12.843Z,96023.72
2022-09-05T04:54:00.985Z,96035.81
2022-09-05T04:56:34.495Z,96033.22
2022-09-05T05:01:13.176Z,96038.75
2022-09-05T05:06:08.356Z,96036.94
2022-09-05T05:06:17.746Z,96036.38
2022-09-05T05:07:51.578Z,96045.19
2022-09-05T05:12:23.925Z,96041.78
2022-09-05T05:17:59.174Z,96042.00
2022-09-05T05:18:13.921Z,96044.09
2022-09-05T05:19:18.835Z,96053.72
2022-09-05T05:21:52.403Z,96048.66
2022-09-05T05:24:24.763Z,96049.69
2022-09-05T05:26:57.323Z,96047.66
2022-09-05T05:29:34.394Z,96048.50
2022-09-05T05:32:06.615Z,96053.81
2022-09-05T05:34:42.570Z,96055.47
2022-09-05T05:37:19.289Z,96050.78
2022-09-05T05:39:52.102Z,96056.69
2022-09-05T05:42:24.167Z,96061.38
2022-09-05T05:44:54.759Z,96055.63
2022-09-05T05:47:29.937Z,96062.16
2022-09-05T05:50:11.506Z,96078.56
2022-09-05T05:52:54.867Z,96066.25
2022-09-05T05:55:51.286Z,96074.84
2022-09-05T05:58:35.614Z,96074.00
2022-09-05T06:01:41.433Z,96068.22
2022-09-05T06:04:44.910Z,96072.06
2022-09-05T06:07:22.822Z,96082.91
2022-09-05T06:14:56.254Z,96084.09
2022-09-05T06:15:05.148Z,96085.50
2022-09-05T06:17:11.077Z,96087.38
2022-09-05T06:22:04.021Z,96081.28
2022-09-05T06:26:09.838Z,96087.28
2022-09-05T06:28:53.429Z,96079.38
2022-09-05T06:31:49.008Z,96084.66
2022-09-05T06:34:44.789Z,96083.75
2022-09-05T06:37:27.347Z,96078.94
2022-09-05T06:40:09.006Z,96081.19
2022-09-05T06:42:55.034Z,96083.44
2022-09-05T06:45:35.374Z,96079.47
2022-09-05T06:48:14.581Z,96077.16
2022-09-05T06:51:34.062Z,96087.38
2022-09-05T06:54:20.731Z,96087.44
2022-09-05T06:57:03.615Z,96082.06
2022-09-05T07:00:22.683Z,96095.94
2022-09-05T07:03:10.520Z,96094.16
2022-09-05T07:05:46.939Z,96093.06
2022-09-05T07:08:36.155Z,96091.78
2022-09-05T07:11:16.780Z,96094.34
2022-09-05T07:13:57.212Z,96095.69
2022-09-05T07:16:38.982Z,96106.50
2022-09-05T07:19:24.314Z,96104.22
2022-09-05T07:22:46.367Z,96102.34
2022-09-05T07:25:08.807Z,96100.84
2022-09-05T07:27:43.037Z,96100.72
2022-09-05T07:30:29.139Z,96100.50
2022-09-05T07:33:02.883Z,96099.44
2022-09-05T07:35:34.679Z,96108.63
2022-09-05T07:38:15.951Z,96103.50
2022-09-05T07:40:51.675Z,96109.63
2022-09-05T07:43:23.818Z,96113.44
2022-09-05T07:46:03.407Z,96121.31
2022-09-05T07:48:39.657Z,96110.34
2022-09-05T07:56:53.934Z,96113.78
2022-09-05T07:56:54.712Z,96115.53
2022-09-05T07:59:42.556Z,96113.75
2022-09-05T08:02:13.845Z,96107.00
2022-09-05T08:04:42.914Z,96109.38
2022-09-05T08:07:47.175Z,96109.63
2022-09-05T08:10:10.030Z,96111.41
2022-09-05T08:13:23.066Z,96107.00
2022-09-05T08:16:04.328Z,96103.84
2022-09-05T08:18:30.534Z,96106.81
2022-09-05T08:21:07.726Z,96102.97
2022-09-05T08:23:52.955Z,96096.50
2022-09-05T08:26:31.851Z,96107.81
2022-09-05T08:29:06.093Z,96106.03
2022-09-05T08:31:42.271Z,96100.28
2022-09-05T08:34:16.001Z,96102.13
2022-09-05T08:36:47.269Z,96095.44
2022-09-05T08:39:19.490Z,96100.13
2022-09-05T08:42:05.963Z,96098.97
2022-09-05T08:46:39.790Z,96097.19
2022-09-05T08:47:44.935Z,96091.09
2022-09-05T08:50:37.542Z,96094.69
2022-09-05T08:53:43.126Z,96090.47
2022-09-05T08:56:10.165Z,96088.34
2022-09-05T08:58:54.080Z,96087.28
2022-09-05T09:02:14.705Z,96084.34
2022-09-05T09:05:02.290Z,96085.19
2022-09-05T09:07:51.686Z,96086.50
2022-09-05T09:10:46.245Z,96085.94
2022-09-05T09:13:29.569Z,96082.59
2022-09-05T09:16:04.969Z,96078.47
2022-09-05T09:18:45.811Z,96077.78
2022-09-05T09:21:34.275Z,96078.50
2022-09-05T09:24:10.748Z,96075.66
2022-09-05T09:26:48.164Z,96072.75
2022-09-05T09:29:19.387Z,96072.00
2022-09-05T09:32:02.354Z,96069.41
2022-09-05T09:34:47.090Z,96065.94
2022-09-05T09:37:59.699Z,96070.75
2022-09-05T09:40:50.206Z,96062.34
2022-09-05T09:43:52.718Z,96063.66
2022-09-05T09:46:33.986Z,96072.91
2022-09-05T09:49:22.962Z,96063.94
2022-09-05T09:52:19.530Z,96060.66
2022-09-05T09:55:32.822Z,96053.81
2022-09-05T09:58:29.363Z,96052.44
2022-09-05T10:01:35.196Z,96046.69
2022-09-05T10:10:34.136Z,96044.78
2022-09-05T10:10:43.853Z,96043.00
2022-09-05T10:11:25.900Z,96041.78
2022-09-05T10:13:59.062Z,96049.09
2022-09-05T10:17:10.237Z,96037.28
2022-09-05T10:20:14.278Z,96038.38
2022-09-05T10:23:09.634Z,96036.41
2022-09-05T10:26:01.423Z,96035.81
2022-09-05T10:28:39.170Z,96046.66
2022-09-05T10:32:25.997Z,96033.00
2022-09-05T10:35:23.215Z,96032.38
2022-09-05T10:37:13.222Z,96033.50
2022-09-05T10:39:47.309Z,96028.16
2022-09-05T10:42:22.602Z,96024.78
2022-09-05T10:44:54.322Z,96019.31
2022-09-05T10:47:40.034Z,96024.66
2022-09-05T10:50:19.855Z,96024.03
2022-09-05T10:53:03.313Z,96017.09
2022-09-05T10:55:38.518Z,96024.84
2022-09-05T10:58:22.128Z,96020.31
2022-09-05T11:02:29.552Z,96019.84
2022-09-05T11:04:23.312Z,96009.22
2022-09-05T11:06:56.103Z,96008.06
2022-09-05T11:09:33.037Z,96007.19
2022-09-05T11:12:08.208Z,95994.97
2022-09-05T11:14:49.727Z,95998.84
2022-09-05T11:17:30.460Z,96004.47
2022-09-05T11:20:34.502Z,95988.47
2022-09-05T11:23:12.085Z,95986.84
2022-09-05T11:25:41.353Z,95991.28
2022-09-05T11:28:15.954Z,95993.66
2022-09-05T11:30:49.546Z,95990.09
2022-09-05T11:39:35.089Z,95990.84
2022-09-05T11:39:58.356Z,95987.94
2022-09-05T11:40:31.418Z,95982.88
2022-09-05T11:43:36.301Z,95984.31
2022-09-05T11:46:21.821Z,95976.81
2022-09-05T11:49:24.073Z,95983.06
2022-09-05T11:52:42.033Z,95980.88
2022-09-05T11:56:06.356Z,95989.78
2022-09-05T11:59:13.762Z,95984.59
2022-09-05T12:01:55.304Z,95983.09
2022-09-05T12:05:48.335Z,95978.59
2022-09-05T12:07:57.472Z,95977.59
2022-09-05T12:10:46.190Z,95978.50
2022-09-05T12:13:31.284Z,95976.53
2022-09-05T12:16:07.822Z,95970.84
2022-09-05T12:18:45.970Z,95967.16
2022-09-05T12:21:26.909Z,95962.06
2022-09-05T12:24:24.753Z,95965.41
2022-09-05T12:27:41.714Z,95958.41
2022-09-05T12:29:59.538Z,95961.81
2022-09-05T12:35:30.336Z,95954.97
2022-09-05T12:36:11.621Z,95961.44
2022-09-05T12:41:32.639Z,95964.84
2022-09-05T12:41:43.000Z,95959.88
2022-09-05T12:44:42.062Z,95954.63
2022-09-05T12:47:18.657Z,95955.63
2022-09-05T12:50:02.932Z,95954.69
2022-09-05T12:52:42.763Z,95946.38
2022-09-05T12:55:19.391Z,95953.63
2022-09-05T12:59:56.668Z,95949.78
2022-09-05T13:03:07.412Z,95953.13
2022-09-05T13:03:53.739Z,95949.59
2022-09-05T13:06:31.283Z,95951.06
2022-09-05T13:09:05.196Z,95947.94
2022-09-05T13:14:57.932Z,95945.34
2022-09-05T13:15:07.844Z,95941.34
2022-09-05T13:17:37.364Z,95938.72
2022-09-05T13:20:19.800Z,95937.13
2022-09-05T13:22:50.783Z,95931.00
2022-09-05T13:25:24.924Z,95925.81
2022-09-05T13:27:59.487Z,95921.00
2022-09-05T13:34:32.395Z,95929.03
2022-09-05T13:38:19.616Z,95919.56
2022-09-05T13:38:20.156Z,95919.66
2022-09-05T13:39:07.745Z,95918.38
2022-09-05T13:41:37.770Z,95913.41
2022-09-05T13:44:25.497Z,95918.78
2022-09-05T13:47:29.049Z,95914.38
2022-09-05T13:50:08.223Z,95911.25
2022-09-05T13:52:42.616Z,95913.75
2022-09-05T13:55:22.165Z,95908.94
2022-09-05T13:57:55.901Z,95907.53
2022-09-05T14:00:45.170Z,95908.00
2022-09-05T14:03:37.644Z,95909.75
2022-09-05T14:06:46.644Z,95900.88
2022-09-05T14:09:46.787Z,95893.13
2022-09-05T14:12:29.920Z,95889.22
2022-09-05T14:15:10.403Z,95888.47
2022-09-05T14:17:56.624Z,95879.03
2022-09-05T14:20:50.200Z,95876.97
2022-09-05T14:23:22.411Z,95877.00
2022-09-05T14:25:57.072Z,95872.69
2022-09-05T14:28:31.716Z,95874.59
2022-09-05T14:33:57.631Z,95869.97
2022-09-05T14:37:50.094Z,95874.09
2022-09-05T14:37:52.920Z,95868.59
2022-09-05T14:40:32.538Z,95871.03
2022-09-05T14:43:26.702Z,95864.03
2022-09-05T14:46:11.394Z,95862.06
2022-09-05T14:49:12.373Z,95864.19
2022-09-05T14:51:47.498Z,95857.38
2022-09-05T15:02:45.214Z,95857.41
2022-09-05T15:02:49.949Z,95850.97
2022-09-05T15:03:04.840Z,95850.66
2022-09-05T15:05:42.014Z,95847.31
2022-09-05T15:08:14.889Z,95845.13
2022-09-05T15:12:20.656Z,95849.47
2022-09-05T15:14:03.481Z,95854.69
2022-09-05T15:16:35.503Z,95847.63
2022-09-05T15:19:03.867Z,95845.09
2022-09-05T15:21:35.356Z,95848.88
2022-09-05T15:24:21.463Z,95850.66
2022-09-05T15:26:53.150Z,95846.41
2022-09-05T15:29:23.889Z,95839.00
2022-09-05T15:32:07.621Z,95837.44
2022-09-05T15:34:38.989Z,95840.19
2022-09-05T15:37:23.201Z,95840.09
2022-09-05T15:40:02.254Z,95840.06
2022-09-05T15:42:33.210Z,95830.91
2022-09-05T15:45:10.150Z,95828.00
2022-09-05T15:47:45.426Z,95830.94
2022-09-05T15:50:22.227Z,95835.72
2022-09-05T15:52:55.648Z,95835.78
2022-09-05T15:55:26.177Z,95832.00
2022-09-05T15:57:56.407Z,95834.75
2022-09-05T16:00:43.648Z,95828.41
2022-09-05T16:05:46.352Z,95837.72
2022-09-05T16:10:35.690Z,95839.72
2022-09-05T16:10:41.559Z,95830.53
2022-09-05T16:15:17.823Z,95828.78
2022-09-05T16:23:15.096Z,95826.38
2022-09-05T16:23:32.267Z,95828.31
2022-09-05T16:23:42.087Z,95829.69
2022-09-05T16:26:19.133Z,95816.38
2022-09-05T16:28:58.994Z,95816.84
2022-09-05T16:31:35.256Z,95821.63
2022-09-05T16:34:11.740Z,95815.22
2022-09-05T16:37:00.908Z,95820.84
2022-09-05T16:39:42.409Z,95820.16
2022-09-05T16:42:16.310Z,95817.88
2022-09-05T16:44:48.272Z,95817.03
2022-09-05T16:47:25.778Z,95815.75
2022-09-05T16:50:03.799Z,95814.41
2022-09-05T16:52:56.151Z,95810.34
2022-09-05T16:55:33.896Z,95804.25
2022-09-05T16:58:08.936Z,95805.50
2022-09-05T17:00:49.441Z,95814.34
2022-09-05T17:03:28.931Z,95810.22
2022-09-05T17:06:06.822Z,95808.63
2022-09-05T17:08:36.990Z,95805.22
2022-09-05T17:11:15.671Z,95797.53
2022-09-05T17:14:07.405Z,95799.47
2022-09-05T17:16:42.668Z,95797.81
2022-09-05T17:19:22.501Z,95803.91
2022-09-05T17:28:46.031Z,95802.50
2022-09-05T17:29:26.613Z,95803.88
2022-09-05T17:29:39.124Z,95797.63
2022-09-05T17:33:50.082Z,95803.94
2022-09-05T17:36:23.298Z,95796.72
2022-09-05T17:39:44.963Z,95794.69
2022-09-05T17:42:32.396Z,95792.63
2022-09-05T17:45:12.805Z,95799.47
2022-09-05T17:47:48.588Z,95795.97
2022-09-05T17:50:19.759Z,95801.19
2022-09-05T17:53:26.113Z,95793.41
2022-09-05T17:56:13.283Z,95793.75
2022-09-05T17:59:02.770Z,95791.34
2022-09-05T18:01:32.332Z,95799.72
2022-09-05T18:04:17.056Z,95807.59
2022-09-05T18:06:59.409Z,95802.50
2022-09-05T18:10:05.933Z,95798.44
2022-09-05T18:16:05.869Z,95802.22
2022-09-05T18:19:28.376Z,95805.75
2022-09-05T18:21:25.821Z,95800.88
2022-09-05T18:24:02.143Z,95814.34
2022-09-05T18:26:39.162Z,95813.75
2022-09-05T18:29:14.512Z,95812.66
2022-09-05T18:32:03.003Z,95809.13
2022-09-05T18:34:46.737Z,95822.25
2022-09-05T18:38:02.305Z,95813.06
2022-09-05T18:40:52.929Z,95813.03
2022-09-05T18:43:35.858Z,95821.06
2022-09-05T18:46:13.704Z,95823.38
2022-09-05T18:49:35.360Z,95829.22
2022-09-05T18:51:52.985Z,95825.25
2022-09-05T18:54:25.370Z,95827.63
2022-09-05T18:57:27.410Z,95831.28
2022-09-05T18:59:53.066Z,95830.88
2022-09-05T19:02:28.809Z,95828.66
2022-09-05T19:05:17.959Z,95831.00
2022-09-05T19:07:49.812Z,95828.25
2022-09-05T19:10:35.957Z,95838.72
2022-09-05T19:13:12.067Z,95841.03
2022-09-05T19:15:49.824Z,95843.69
2022-09-05T19:18:26.060Z,95840.31
2022-09-05T19:21:11.947Z,95842.19
2022-09-05T19:23:50.842Z,95843.94
2022-09-05T19:26:19.425Z,95841.78
2022-09-05T19:36:51.312Z,95841.19
2022-09-05T19:36:53.753Z,95833.56
2022-09-05T19:36:54.920Z,95835.09
2022-09-05T19:37:30.512Z,95833.91
2022-09-05T19:46:00.794Z,95835.22
2022-09-05T19:47:41.054Z,95825.63
2022-09-05T19:47:50.723Z,95837.00
2022-09-05T19:48:35.231Z,95825.28
2022-09-05T19:51:17.491Z,95822.03
2022-09-05T19:53:53.832Z,95817.41
2022-09-05T19:56:37.124Z,95812.06
2022-09-05T19:59:16.812Z,95812.78
2022-09-05T20:01:46.066Z,95823.50
2022-09-05T20:04:19.067Z,95825.28
2022-09-05T20:06:47.065Z,95820.75
2022-09-05T20:09:16.666Z,95806.94
2022-09-05T20:11:49.709Z,95814.00
2022-09-05T20:14:23.707Z,95812.47
2022-09-05T20:16:53.246Z,95814.50
2022-09-05T20:19:30.718Z,95810.94
2022-09-05T20:22:18.726Z,95809.22
2022-09-05T20:24:55.302Z,95811.22
2022-09-05T20:27:28.249Z,95809.47
2022-09-05T20:29:58.194Z,95810.69
2022-09-05T20:32:38.981Z,95799.06
2022-09-05T20:37:58.615Z,95805.38
2022-09-05T20:43:18.926Z,95806.69
2022-09-05T20:43:23.237Z,95804.38
2022-09-05T20:44:04.758Z,95817.28
2022-09-05T20:53:03.612Z,95822.63
2022-09-05T20:54:15.603Z,95823.28
2022-09-05T20:54:19.756Z,95826.75
2022-09-05T20:55:39.196Z,95817.56
2022-09-05T20:58:11.487Z,95808.28
2022-09-05T21:01:19.805Z,95811.22
2022-09-05T21:03:37.833Z,95801.91
2022-09-05T21:06:19.966Z,95806.34
2022-09-05T21:08:47.683Z,95807.63
2022-09-05T21:11:15.376Z,95803.66
2022-09-05T21:13:52.796Z,95800.16
2022-09-05T21:16:28.386Z,95790.28
2022-09-05T21:18:56.364Z,95794.81
2022-09-05T21:21:29.555Z,95798.06
2022-09-05T21:24:16.796Z,95792.16
2022-09-05T21:26:48.215Z,95797.41
2022-09-05T21:29:17.559Z,95793.78
2022-09-05T21:31:53.549Z,95797.84
2022-09-05T21:34:26.273Z,95805.88
2022-09-05T21:36:57.930Z,95808.88
2022-09-05T21:39:39.942Z,95803.06
2022-09-05T21:43:14.641Z,95812.34
2022-09-05T21:47:37.388Z,95801.97
2022-09-05T21:47:53.097Z,95806.13
2022-09-05T21:50:30.609Z,95803.69
2022-09-05T21:53:31.197Z,95804.97
2022-09-05T21:59:21.754Z,95806.59
2022-09-05T21:59:26.557Z,95801.84
2022-09-05T22:01:46.317Z,95810.09
2022-09-05T22:04:15.278Z,95808.31
2022-09-05T22:06:44.761Z,95803.34
2022-09-05T22:09:14.310Z,95806.13
2022-09-05T22:11:42.165Z,95800.53
2022-09-05T22:14:10.637Z,95799.25
2022-09-05T22:16:40.053Z,95793.41
2022-09-05T22:19:17.755Z,95790.66
2022-09-05T22:21:45.571Z,95791.66
2022-09-05T22:24:13.732Z,95792.41
2022-09-05T22:27:10.780Z,95788.69
2022-09-05T22:29:34.431Z,95787.66
2022-09-05T22:32:02.430Z,95792.69
2022-09-05T22:34:31.837Z,95794.53
2022-09-05T22:36:59.547Z,95778.19
2022-09-05T22:39:36.804Z,95782.94
2022-09-05T22:42:10.372Z,95781.44
2022-09-05T22:44:38.962Z,95777.72
2022-09-05T22:47:07.149Z,95775.84
2022-09-05T22:49:37.332Z,95773.56
2022-09-05T22:52:06.287Z,95775.78
2022-09-05T22:54:34.643Z,95767.56
2022-09-05T22:57:02.782Z,95783.38
2022-09-05T22:59:31.183Z,95776.56
2022-09-05T23:01:59.442Z,95769.94
2022-09-05T23:04:27.531Z,95770.59
2022-09-05T23:06:56.539Z,95778.91
2022-09-05T23:09:24.485Z,95775.84
2022-09-05T23:11:52.082Z,95775.75
2022-09-05T23:14:19.716Z,95773.72
2022-09-05T23:16:47.297Z,95771.53
2022-09-05T23:19:15.206Z,95766.19
2022-09-05T23:21:42.850Z,95772.31
2022-09-05T23:24:12.625Z,95762.69
2022-09-05T23:26:40.229Z,95762.94
2022-09-05T23:29:08.313Z,95770.09
2022-09-05T23:31:36.009Z,95769.72
2022-09-05T23:34:03.977Z,95767.81
2022-09-05T23:36:32.145Z,95761.28
2022-09-05T23:38:59.777Z,95759.75
2022-09-05T23:41:28.791Z,95762.63
2022-09-05T23:43:56.757Z,95754.03
2022-09-05T23:46:24.549Z,95756.13
2022-09-05T23:48:52.569Z,95750.78
2022-09-05T23:51:20.176Z,95740.94
2022-09-05T23:53:48.089Z,95741.75
2022-09-05T23:56:15.701Z,95749.16
2022-09-05T23:58:46.018Z,95742.19
